sensor_id;sensor_type;location;lat;lon;timestamp;temperature;humidity
7204;DHT22;3643;52.460;13.322;2024-01-25T00:01:15;8.50;99.90
7204;DHT22;3643;52.460;13.322;2024-01-25T00:03:43;8.10;99.90
7204;DHT22;3643;52.460;13.322;2024-01-25T00:06:12;8.10;99.90
7204;DHT22;3643;52.460;13.322;2024-01-25T00:08:40;8.10;99.90
7204;DHT22;3643;52.460;13.322;2024-01-25T00:11:08;8.10;99.90
7204;DHT22;3643;52.460;13.322;2024-01-25T00:13:37;8.10;99.90
7204;DHT22;3643;52.460;13.322;2024-01-25T00:16:06;8.10;99.90
7204;DHT22;3643;52.460;13.322;2024-01-25T00:18:35;8.10;99.90
7204;DHT22;3643;52.460;13.322;2024-01-25T00:21:04;8.10;99.90
7204;DHT22;3643;52.460;13.322;2024-01-25T00:23:33;8.10;99.90
7204;DHT22;3643;52.460;13.322;2024-01-25T00:26:01;8.10;99.90
7204;DHT22;3643;52.460;13.322;2024-01-25T00:28:29;8.10;99.90
7204;DHT22;3643;52.460;13.322;2024-01-25T00:30:57;8.20;99.90
7204;DHT22;3643;52.460;13.322;2024-01-25T00:33:25;8.10;99.90
7204;DHT22;3643;52.460;13.322;2024-01-25T00:35:56;8.10;99.90
7204;DHT22;3643;52.460;13.322;2024-01-25T00:38:25;8.10;99.90
7204;DHT22;3643;52.460;13.322;2024-01-25T00:40:54;8.10;99.90
7204;DHT22;3643;52.460;13.322;2024-01-25T00:43:23;8.10;99.90
7204;DHT22;3643;52.460;13.322;2024-01-25T00:45:51;8.10;99.90
7204;DHT22;3643;52.460;13.322;2024-01-25T00:48:20;8.10;99.90
7204;DHT22;3643;52.460;13.322;2024-01-25T00:50:49;8.10;99.90
7204;DHT22;3643;52.460;13.322;2024-01-25T00:53:19;8.10;99.90
7204;DHT22;3643;52.460;13.322;2024-01-25T00:55:48;8.00;99.90
7204;DHT22;3643;52.460;13.322;2024-01-25T00:58:17;8.10;99.90
7204;DHT22;3643;52.460;13.322;2024-01-25T01:00:46;8.10;99.90
7204;DHT22;3643;52.460;13.322;2024-01-25T01:03:15;8.10;99.90
7204;DHT22;3643;52.460;13.322;2024-01-25T01:05:46;8.10;99.90
7204;DHT22;3643;52.460;13.322;2024-01-25T01:08:15;8.10;99.90
7204;DHT22;3643;52.460;13.322;2024-01-25T01:10:45;8.20;99.90
7204;DHT22;3643;52.460;13.322;2024-01-25T01:13:13;8.20;99.90
7204;DHT22;3643;52.460;13.322;2024-01-25T01:15:41;8.20;99.90
7204;DHT22;3643;52.460;13.322;2024-01-25T01:18:10;8.20;99.90
7204;DHT22;3643;52.460;13.322;2024-01-25T01:20:38;8.20;99.90
7204;DHT22;3643;52.460;13.322;2024-01-25T01:23:07;8.20;99.90
7204;DHT22;3643;52.460;13.322;2024-01-25T01:25:35;8.20;99.90
7204;DHT22;3643;52.460;13.322;2024-01-25T01:28:05;8.30;99.90
7204;DHT22;3643;52.460;13.322;2024-01-25T01:30:33;8.20;99.90
7204;DHT22;3643;52.460;13.322;2024-01-25T01:33:01;8.10;99.90
7204;DHT22;3643;52.460;13.322;2024-01-25T01:35:29;8.10;99.90
7204;DHT22;3643;52.460;13.322;2024-01-25T01:37:58;8.20;99.90
7204;DHT22;3643;52.460;13.322;2024-01-25T01:40:26;8.20;99.90
7204;DHT22;3643;52.460;13.322;2024-01-25T01:43:00;8.20;99.90
7204;DHT22;3643;52.460;13.322;2024-01-25T01:45:30;8.20;99.90
7204;DHT22;3643;52.460;13.322;2024-01-25T01:47:59;8.30;99.90
7204;DHT22;3643;52.460;13.322;2024-01-25T01:50:28;8.30;99.90
7204;DHT22;3643;52.460;13.322;2024-01-25T01:52:56;8.30;99.90
7204;DHT22;3643;52.460;13.322;2024-01-25T01:55:25;8.30;99.90
7204;DHT22;3643;52.460;13.322;2024-01-25T01:57:54;8.20;99.90
7204;DHT22;3643;52.460;13.322;2024-01-25T02:00:24;8.20;99.90
7204;DHT22;3643;52.460;13.322;2024-01-25T02:02:54;8.20;99.90
7204;DHT22;3643;52.460;13.322;2024-01-25T02:05:24;8.20;99.90
7204;DHT22;3643;52.460;13.322;2024-01-25T02:07:52;8.20;99.90
7204;DHT22;3643;52.460;13.322;2024-01-25T02:10:21;8.20;99.90
7204;DHT22;3643;52.460;13.322;2024-01-25T02:12:49;8.10;99.90
7204;DHT22;3643;52.460;13.322;2024-01-25T02:15:17;8.20;99.90
7204;DHT22;3643;52.460;13.322;2024-01-25T02:17:46;8.20;99.90
7204;DHT22;3643;52.460;13.322;2024-01-25T02:20:19;8.20;99.90
7204;DHT22;3643;52.460;13.322;2024-01-25T02:22:49;8.20;99.90
7204;DHT22;3643;52.460;13.322;2024-01-25T02:25:17;8.50;99.90
7204;DHT22;3643;52.460;13.322;2024-01-25T02:27:46;8.10;99.90
7204;DHT22;3643;52.460;13.322;2024-01-25T02:30:14;8.10;99.90
7204;DHT22;3643;52.460;13.322;2024-01-25T02:32:43;8.10;99.90
7204;DHT22;3643;52.460;13.322;2024-01-25T02:35:11;8.10;99.90
7204;DHT22;3643;52.460;13.322;2024-01-25T02:37:39;8.10;99.90
7204;DHT22;3643;52.460;13.322;2024-01-25T02:40:10;8.00;99.90
7204;DHT22;3643;52.460;13.322;2024-01-25T02:42:38;8.00;99.90
7204;DHT22;3643;52.460;13.322;2024-01-25T02:45:07;8.00;99.90
7204;DHT22;3643;52.460;13.322;2024-01-25T02:47:35;7.90;99.90
7204;DHT22;3643;52.460;13.322;2024-01-25T02:50:05;8.10;99.90
7204;DHT22;3643;52.460;13.322;2024-01-25T02:52:33;8.00;99.90
7204;DHT22;3643;52.460;13.322;2024-01-25T02:55:01;8.00;99.90
7204;DHT22;3643;52.460;13.322;2024-01-25T02:57:30;7.90;99.90
7204;DHT22;3643;52.460;13.322;2024-01-25T02:59:59;8.00;99.90
7204;DHT22;3643;52.460;13.322;2024-01-25T03:02:27;7.90;99.90
7204;DHT22;3643;52.460;13.322;2024-01-25T03:04:55;7.90;99.90
7204;DHT22;3643;52.460;13.322;2024-01-25T03:07:23;7.90;99.90
7204;DHT22;3643;52.460;13.322;2024-01-25T03:09:51;7.90;99.90
7204;DHT22;3643;52.460;13.322;2024-01-25T03:12:19;8.00;99.90
7204;DHT22;3643;52.460;13.322;2024-01-25T03:14:49;8.00;99.90
7204;DHT22;3643;52.460;13.322;2024-01-25T03:17:18;8.00;99.90
7204;DHT22;3643;52.460;13.322;2024-01-25T03:19:46;7.90;99.90
7204;DHT22;3643;52.460;13.322;2024-01-25T03:22:14;8.00;99.90
7204;DHT22;3643;52.460;13.322;2024-01-25T03:24:43;8.00;99.90
7204;DHT22;3643;52.460;13.322;2024-01-25T03:27:11;8.00;99.90
7204;DHT22;3643;52.460;13.322;2024-01-25T03:29:41;8.00;99.90
7204;DHT22;3643;52.460;13.322;2024-01-25T03:32:11;7.90;99.90
7204;DHT22;3643;52.460;13.322;2024-01-25T03:34:40;7.90;99.90
7204;DHT22;3643;52.460;13.322;2024-01-25T03:37:08;7.90;99.90
7204;DHT22;3643;52.460;13.322;2024-01-25T03:39:36;7.90;99.90
7204;DHT22;3643;52.460;13.322;2024-01-25T03:42:04;7.80;99.90
7204;DHT22;3643;52.460;13.322;2024-01-25T03:44:32;7.90;99.90
7204;DHT22;3643;52.460;13.322;2024-01-25T03:47:00;7.80;99.90
7204;DHT22;3643;52.460;13.322;2024-01-25T03:49:30;7.80;99.90
7204;DHT22;3643;52.460;13.322;2024-01-25T03:51:58;7.80;99.90
7204;DHT22;3643;52.460;13.322;2024-01-25T03:54:26;7.80;99.90
7204;DHT22;3643;52.460;13.322;2024-01-25T03:56:53;7.90;99.90
7204;DHT22;3643;52.460;13.322;2024-01-25T03:59:22;7.90;99.90
7204;DHT22;3643;52.460;13.322;2024-01-25T04:01:49;7.80;99.90
7204;DHT22;3643;52.460;13.322;2024-01-25T04:04:18;8.00;99.90
7204;DHT22;3643;52.460;13.322;2024-01-25T04:06:47;7.80;99.90
7204;DHT22;3643;52.460;13.322;2024-01-25T04:09:16;7.80;99.90
7204;DHT22;3643;52.460;13.322;2024-01-25T04:11:44;7.80;99.90
7204;DHT22;3643;52.460;13.322;2024-01-25T04:14:12;7.80;99.90
7204;DHT22;3643;52.460;13.322;2024-01-25T04:16:40;7.90;99.90
7204;DHT22;3643;52.460;13.322;2024-01-25T04:19:08;7.80;99.90
7204;DHT22;3643;52.460;13.322;2024-01-25T04:21:39;7.70;99.90
7204;DHT22;3643;52.460;13.322;2024-01-25T04:24:08;7.80;99.90
7204;DHT22;3643;52.460;13.322;2024-01-25T04:26:36;7.80;99.90
7204;DHT22;3643;52.460;13.322;2024-01-25T04:29:04;7.70;99.90
7204;DHT22;3643;52.460;13.322;2024-01-25T04:31:33;7.70;99.90
7204;DHT22;3643;52.460;13.322;2024-01-25T04:34:01;7.70;99.90
7204;DHT22;3643;52.460;13.322;2024-01-25T04:36:30;7.70;99.90
7204;DHT22;3643;52.460;13.322;2024-01-25T04:38:58;7.70;99.90
7204;DHT22;3643;52.460;13.322;2024-01-25T04:41:27;7.80;99.90
7204;DHT22;3643;52.460;13.322;2024-01-25T04:43:55;7.70;99.90
7204;DHT22;3643;52.460;13.322;2024-01-25T04:46:23;7.70;99.90
7204;DHT22;3643;52.460;13.322;2024-01-25T04:48:51;7.70;99.90
7204;DHT22;3643;52.460;13.322;2024-01-25T04:51:19;7.60;99.90
7204;DHT22;3643;52.460;13.322;2024-01-25T04:53:47;7.60;99.90
7204;DHT22;3643;52.460;13.322;2024-01-25T04:56:16;7.80;99.90
7204;DHT22;3643;52.460;13.322;2024-01-25T04:58:45;7.70;99.90
7204;DHT22;3643;52.460;13.322;2024-01-25T05:01:13;7.60;99.90
7204;DHT22;3643;52.460;13.322;2024-01-25T05:03:41;7.60;99.90
7204;DHT22;3643;52.460;13.322;2024-01-25T05:06:10;7.60;99.90
7204;DHT22;3643;52.460;13.322;2024-01-25T05:08:38;7.60;99.90
7204;DHT22;3643;52.460;13.322;2024-01-25T05:11:06;7.60;99.90
7204;DHT22;3643;52.460;13.322;2024-01-25T05:13:35;7.70;99.90
7204;DHT22;3643;52.460;13.322;2024-01-25T05:16:05;7.70;99.90
7204;DHT22;3643;52.460;13.322;2024-01-25T05:18:33;7.60;99.90
7204;DHT22;3643;52.460;13.322;2024-01-25T05:21:02;7.60;99.90
7204;DHT22;3643;52.460;13.322;2024-01-25T05:23:30;7.60;99.90
7204;DHT22;3643;52.460;13.322;2024-01-25T05:25:58;7.50;99.90
7204;DHT22;3643;52.460;13.322;2024-01-25T05:28:26;7.50;99.90
7204;DHT22;3643;52.460;13.322;2024-01-25T05:30:54;7.60;99.90
7204;DHT22;3643;52.460;13.322;2024-01-25T05:33:23;7.50;99.90
7204;DHT22;3643;52.460;13.322;2024-01-25T05:35:51;7.60;99.90
7204;DHT22;3643;52.460;13.322;2024-01-25T05:38:19;7.60;99.90
7204;DHT22;3643;52.460;13.322;2024-01-25T05:40:47;7.60;99.90
7204;DHT22;3643;52.460;13.322;2024-01-25T05:43:16;7.50;99.90
7204;DHT22;3643;52.460;13.322;2024-01-25T05:45:44;7.50;99.90
7204;DHT22;3643;52.460;13.322;2024-01-25T05:48:12;7.50;99.90
7204;DHT22;3643;52.460;13.322;2024-01-25T05:50:41;7.50;99.90
7204;DHT22;3643;52.460;13.322;2024-01-25T05:53:09;7.50;99.90
7204;DHT22;3643;52.460;13.322;2024-01-25T05:55:37;7.70;99.90
7204;DHT22;3643;52.460;13.322;2024-01-25T05:58:06;7.50;99.90
7204;DHT22;3643;52.460;13.322;2024-01-25T06:00:34;7.50;99.90
7204;DHT22;3643;52.460;13.322;2024-01-25T06:03:02;7.50;99.90
7204;DHT22;3643;52.460;13.322;2024-01-25T06:05:29;7.70;99.90
7204;DHT22;3643;52.460;13.322;2024-01-25T06:07:59;7.60;99.90
7204;DHT22;3643;52.460;13.322;2024-01-25T06:10:27;7.50;99.90
7204;DHT22;3643;52.460;13.322;2024-01-25T06:12:55;7.50;99.90
7204;DHT22;3643;52.460;13.322;2024-01-25T06:15:23;7.50;99.90
7204;DHT22;3643;52.460;13.322;2024-01-25T06:17:51;7.50;99.90
7204;DHT22;3643;52.460;13.322;2024-01-25T06:20:19;7.60;99.90
7204;DHT22;3643;52.460;13.322;2024-01-25T06:22:48;7.50;99.90
7204;DHT22;3643;52.460;13.322;2024-01-25T06:25:17;7.60;99.90
7204;DHT22;3643;52.460;13.322;2024-01-25T06:27:45;7.50;99.90
7204;DHT22;3643;52.460;13.322;2024-01-25T06:30:14;7.50;99.90
7204;DHT22;3643;52.460;13.322;2024-01-25T06:32:42;7.40;99.90
7204;DHT22;3643;52.460;13.322;2024-01-25T06:35:10;8.60;99.90
7204;DHT22;3643;52.460;13.322;2024-01-25T06:37:38;7.40;99.90
7204;DHT22;3643;52.460;13.322;2024-01-25T06:40:07;7.50;99.90
7204;DHT22;3643;52.460;13.322;2024-01-25T06:42:38;7.40;99.90
7204;DHT22;3643;52.460;13.322;2024-01-25T06:45:06;7.40;99.90
7204;DHT22;3643;52.460;13.322;2024-01-25T06:47:34;7.40;99.90
7204;DHT22;3643;52.460;13.322;2024-01-25T06:50:03;7.40;99.90
7204;DHT22;3643;52.460;13.322;2024-01-25T06:52:31;7.40;99.90
7204;DHT22;3643;52.460;13.322;2024-01-25T06:55:00;7.40;99.90
7204;DHT22;3643;52.460;13.322;2024-01-25T06:57:28;7.50;99.90
7204;DHT22;3643;52.460;13.322;2024-01-25T06:59:58;7.40;99.90
7204;DHT22;3643;52.460;13.322;2024-01-25T07:02:27;7.50;99.90
7204;DHT22;3643;52.460;13.322;2024-01-25T07:04:55;7.50;99.90
7204;DHT22;3643;52.460;13.322;2024-01-25T07:07:26;7.50;99.90
7204;DHT22;3643;52.460;13.322;2024-01-25T07:09:54;7.50;99.90
7204;DHT22;3643;52.460;13.322;2024-01-25T07:12:22;7.50;99.90
7204;DHT22;3643;52.460;13.322;2024-01-25T07:14:50;7.50;99.90
7204;DHT22;3643;52.460;13.322;2024-01-25T07:17:20;7.60;99.90
7204;DHT22;3643;52.460;13.322;2024-01-25T07:19:48;7.60;99.90
7204;DHT22;3643;52.460;13.322;2024-01-25T07:22:17;7.50;99.90
7204;DHT22;3643;52.460;13.322;2024-01-25T07:24:45;7.50;99.90
7204;DHT22;3643;52.460;13.322;2024-01-25T07:27:14;7.60;99.90
7204;DHT22;3643;52.460;13.322;2024-01-25T07:29:43;7.50;99.90
7204;DHT22;3643;52.460;13.322;2024-01-25T07:32:12;7.50;99.90
7204;DHT22;3643;52.460;13.322;2024-01-25T07:34:42;7.50;99.90
7204;DHT22;3643;52.460;13.322;2024-01-25T07:37:10;7.50;99.90
7204;DHT22;3643;52.460;13.322;2024-01-25T07:39:39;7.50;99.90
7204;DHT22;3643;52.460;13.322;2024-01-25T07:42:07;7.60;99.90
7204;DHT22;3643;52.460;13.322;2024-01-25T07:44:35;7.50;99.90
7204;DHT22;3643;52.460;13.322;2024-01-25T07:47:03;7.60;99.90
7204;DHT22;3643;52.460;13.322;2024-01-25T07:49:32;7.50;99.90
7204;DHT22;3643;52.460;13.322;2024-01-25T07:52:01;7.50;99.90
7204;DHT22;3643;52.460;13.322;2024-01-25T07:54:30;7.50;99.90
7204;DHT22;3643;52.460;13.322;2024-01-25T07:56:58;7.50;99.90
7204;DHT22;3643;52.460;13.322;2024-01-25T07:59:26;7.50;99.90
7204;DHT22;3643;52.460;13.322;2024-01-25T08:01:54;7.80;99.90
7204;DHT22;3643;52.460;13.322;2024-01-25T08:04:22;7.60;99.90
7204;DHT22;3643;52.460;13.322;2024-01-25T08:06:52;7.60;99.90
7204;DHT22;3643;52.460;13.322;2024-01-25T08:09:21;7.70;99.90
7204;DHT22;3643;52.460;13.322;2024-01-25T08:11:49;7.70;99.90
7204;DHT22;3643;52.460;13.322;2024-01-25T08:14:18;7.70;99.90
7204;DHT22;3643;52.460;13.322;2024-01-25T08:16:46;7.70;99.90
7204;DHT22;3643;52.460;13.322;2024-01-25T08:19:15;7.80;99.90
7204;DHT22;3643;52.460;13.322;2024-01-25T08:21:43;7.80;99.90
7204;DHT22;3643;52.460;13.322;2024-01-25T08:24:12;7.80;99.90
7204;DHT22;3643;52.460;13.322;2024-01-25T08:26:41;7.80;99.90
7204;DHT22;3643;52.460;13.322;2024-01-25T08:29:09;8.20;99.90
7204;DHT22;3643;52.460;13.322;2024-01-25T08:31:37;7.70;99.90
7204;DHT22;3643;52.460;13.322;2024-01-25T08:34:05;7.80;99.90
7204;DHT22;3643;52.460;13.322;2024-01-25T08:36:34;7.90;99.90
7204;DHT22;3643;52.460;13.322;2024-01-25T08:39:02;7.90;99.90
7204;DHT22;3643;52.460;13.322;2024-01-25T08:41:30;7.90;99.90
7204;DHT22;3643;52.460;13.322;2024-01-25T08:44:00;7.90;99.90
7204;DHT22;3643;52.460;13.322;2024-01-25T08:46:28;7.90;99.90
7204;DHT22;3643;52.460;13.322;2024-01-25T08:48:58;7.90;99.90
7204;DHT22;3643;52.460;13.322;2024-01-25T08:51:27;7.90;99.90
7204;DHT22;3643;52.460;13.322;2024-01-25T08:53:55;7.90;99.90
7204;DHT22;3643;52.460;13.322;2024-01-25T08:56:23;7.90;99.90
7204;DHT22;3643;52.460;13.322;2024-01-25T08:58:51;7.90;99.90
7204;DHT22;3643;52.460;13.322;2024-01-25T09:01:20;7.90;99.90
7204;DHT22;3643;52.460;13.322;2024-01-25T09:03:48;7.90;99.90
7204;DHT22;3643;52.460;13.322;2024-01-25T09:06:17;7.90;99.90
7204;DHT22;3643;52.460;13.322;2024-01-25T09:08:45;8.00;99.90
7204;DHT22;3643;52.460;13.322;2024-01-25T09:11:13;8.00;99.90
7204;DHT22;3643;52.460;13.322;2024-01-25T09:13:41;8.00;99.90
7204;DHT22;3643;52.460;13.322;2024-01-25T09:16:12;8.00;99.90
7204;DHT22;3643;52.460;13.322;2024-01-25T09:18:42;8.00;99.90
7204;DHT22;3643;52.460;13.322;2024-01-25T09:21:11;8.00;99.90
7204;DHT22;3643;52.460;13.322;2024-01-25T09:23:39;8.10;99.90
7204;DHT22;3643;52.460;13.322;2024-01-25T09:26:07;8.10;99.90
7204;DHT22;3643;52.460;13.322;2024-01-25T09:28:35;8.00;99.90
7204;DHT22;3643;52.460;13.322;2024-01-25T09:31:04;8.00;99.90
7204;DHT22;3643;52.460;13.322;2024-01-25T09:33:33;8.10;99.90
7204;DHT22;3643;52.460;13.322;2024-01-25T09:36:03;8.00;99.90
7204;DHT22;3643;52.460;13.322;2024-01-25T09:38:32;8.00;99.90
7204;DHT22;3643;52.460;13.322;2024-01-25T09:41:01;8.00;99.90
7204;DHT22;3643;52.460;13.322;2024-01-25T09:43:30;8.00;99.90
7204;DHT22;3643;52.460;13.322;2024-01-25T09:46:00;7.90;99.90
7204;DHT22;3643;52.460;13.322;2024-01-25T09:48:28;8.00;99.90
7204;DHT22;3643;52.460;13.322;2024-01-25T09:50:59;8.10;99.90
7204;DHT22;3643;52.460;13.322;2024-01-25T09:53:31;8.10;99.90
7204;DHT22;3643;52.460;13.322;2024-01-25T09:56:06;8.00;99.90
7204;DHT22;3643;52.460;13.322;2024-01-25T09:58:37;8.00;99.90
7204;DHT22;3643;52.460;13.322;2024-01-25T10:01:08;8.00;99.90
7204;DHT22;3643;52.460;13.322;2024-01-25T10:03:37;8.00;99.90
7204;DHT22;3643;52.460;13.322;2024-01-25T10:06:07;8.00;99.90
7204;DHT22;3643;52.460;13.322;2024-01-25T10:08:36;8.00;99.90
7204;DHT22;3643;52.460;13.322;2024-01-25T10:11:05;8.10;99.90
7204;DHT22;3643;52.460;13.322;2024-01-25T10:13:40;8.00;99.90
7204;DHT22;3643;52.460;13.322;2024-01-25T10:16:11;8.00;99.90
7204;DHT22;3643;52.460;13.322;2024-01-25T10:18:40;8.10;99.90
7204;DHT22;3643;52.460;13.322;2024-01-25T10:21:10;8.10;99.90
7204;DHT22;3643;52.460;13.322;2024-01-25T10:23:40;8.20;99.90
7204;DHT22;3643;52.460;13.322;2024-01-25T10:26:09;8.30;99.90
7204;DHT22;3643;52.460;13.322;2024-01-25T10:28:38;8.30;99.90
7204;DHT22;3643;52.460;13.322;2024-01-25T10:31:07;8.60;99.90
7204;DHT22;3643;52.460;13.322;2024-01-25T10:33:37;8.40;99.90
7204;DHT22;3643;52.460;13.322;2024-01-25T10:36:08;8.40;99.90
7204;DHT22;3643;52.460;13.322;2024-01-25T10:38:36;8.40;99.90
7204;DHT22;3643;52.460;13.322;2024-01-25T10:41:07;8.50;99.90
7204;DHT22;3643;52.460;13.322;2024-01-25T10:43:35;8.40;99.90
7204;DHT22;3643;52.460;13.322;2024-01-25T10:46:04;8.50;99.90
7204;DHT22;3643;52.460;13.322;2024-01-25T10:48:32;8.50;99.90
7204;DHT22;3643;52.460;13.322;2024-01-25T10:51:01;8.50;99.90
7204;DHT22;3643;52.460;13.322;2024-01-25T10:53:32;8.50;99.90
7204;DHT22;3643;52.460;13.322;2024-01-25T10:56:01;8.50;99.90
7204;DHT22;3643;52.460;13.322;2024-01-25T10:58:32;8.60;99.90
7204;DHT22;3643;52.460;13.322;2024-01-25T11:01:08;8.60;99.90
7204;DHT22;3643;52.460;13.322;2024-01-25T11:03:42;8.70;99.90
7204;DHT22;3643;52.460;13.322;2024-01-25T11:06:13;8.80;99.90
7204;DHT22;3643;52.460;13.322;2024-01-25T11:08:42;8.80;99.90
7204;DHT22;3643;52.460;13.322;2024-01-25T11:11:11;8.90;99.90
7204;DHT22;3643;52.460;13.322;2024-01-25T11:13:42;8.80;99.90
7204;DHT22;3643;52.460;13.322;2024-01-25T11:16:14;8.70;99.90
7204;DHT22;3643;52.460;13.322;2024-01-25T11:18:48;8.80;99.90
7204;DHT22;3643;52.460;13.322;2024-01-25T11:21:26;8.80;99.90
7204;DHT22;3643;52.460;13.322;2024-01-25T11:24:04;8.90;99.90
7204;DHT22;3643;52.460;13.322;2024-01-25T11:26:32;8.90;99.90
7204;DHT22;3643;52.460;13.322;2024-01-25T11:29:02;9.10;99.90
7204;DHT22;3643;52.460;13.322;2024-01-25T11:31:30;8.90;99.90
7204;DHT22;3643;52.460;13.322;2024-01-25T11:34:00;8.90;99.90
7204;DHT22;3643;52.460;13.322;2024-01-25T11:36:28;9.00;99.90
7204;DHT22;3643;52.460;13.322;2024-01-25T11:38:57;8.90;99.90
7204;DHT22;3643;52.460;13.322;2024-01-25T11:41:25;9.00;99.90
7204;DHT22;3643;52.460;13.322;2024-01-25T11:43:53;9.10;99.90
7204;DHT22;3643;52.460;13.322;2024-01-25T11:46:23;8.90;99.90
7204;DHT22;3643;52.460;13.322;2024-01-25T11:48:52;9.00;99.90
7204;DHT22;3643;52.460;13.322;2024-01-25T11:51:21;8.90;99.90
7204;DHT22;3643;52.460;13.322;2024-01-25T11:53:49;8.90;99.90
7204;DHT22;3643;52.460;13.322;2024-01-25T11:56:20;9.00;99.90
7204;DHT22;3643;52.460;13.322;2024-01-25T11:58:49;8.90;99.90
7204;DHT22;3643;52.460;13.322;2024-01-25T12:01:18;8.80;99.90
7204;DHT22;3643;52.460;13.322;2024-01-25T12:03:48;8.80;99.90
7204;DHT22;3643;52.460;13.322;2024-01-25T12:06:17;8.80;99.90
7204;DHT22;3643;52.460;13.322;2024-01-25T12:08:46;8.80;99.90
7204;DHT22;3643;52.460;13.322;2024-01-25T12:11:15;8.90;99.90
7204;DHT22;3643;52.460;13.322;2024-01-25T12:13:45;8.90;99.90
7204;DHT22;3643;52.460;13.322;2024-01-25T12:16:13;8.90;99.90
7204;DHT22;3643;52.460;13.322;2024-01-25T12:18:43;8.90;99.90
7204;DHT22;3643;52.460;13.322;2024-01-25T12:21:13;9.10;99.90
7204;DHT22;3643;52.460;13.322;2024-01-25T12:23:42;9.20;99.90
7204;DHT22;3643;52.460;13.322;2024-01-25T12:26:11;9.20;99.90
7204;DHT22;3643;52.460;13.322;2024-01-25T12:28:39;9.10;99.90
7204;DHT22;3643;52.460;13.322;2024-01-25T12:31:08;9.10;99.90
7204;DHT22;3643;52.460;13.322;2024-01-25T12:33:37;9.00;99.90
7204;DHT22;3643;52.460;13.322;2024-01-25T12:36:05;9.00;99.90
7204;DHT22;3643;52.460;13.322;2024-01-25T12:38:35;9.00;99.90
7204;DHT22;3643;52.460;13.322;2024-01-25T12:41:03;9.10;99.90
7204;DHT22;3643;52.460;13.322;2024-01-25T12:43:32;9.10;99.90
7204;DHT22;3643;52.460;13.322;2024-01-25T12:46:00;9.20;99.90
7204;DHT22;3643;52.460;13.322;2024-01-25T12:48:44;9.30;99.90
7204;DHT22;3643;52.460;13.322;2024-01-25T12:51:14;9.50;99.90
7204;DHT22;3643;52.460;13.322;2024-01-25T12:53:44;9.30;99.90
7204;DHT22;3643;52.460;13.322;2024-01-25T12:56:12;9.30;99.90
7204;DHT22;3643;52.460;13.322;2024-01-25T12:58:41;9.40;99.90
7204;DHT22;3643;52.460;13.322;2024-01-25T13:01:09;9.80;99.90
7204;DHT22;3643;52.460;13.322;2024-01-25T13:03:38;9.30;99.90
7204;DHT22;3643;52.460;13.322;2024-01-25T13:06:06;9.30;99.90
7204;DHT22;3643;52.460;13.322;2024-01-25T13:08:34;9.40;99.90
7204;DHT22;3643;52.460;13.322;2024-01-25T13:11:04;9.60;99.90
7204;DHT22;3643;52.460;13.322;2024-01-25T13:13:32;9.40;99.90
7204;DHT22;3643;52.460;13.322;2024-01-25T13:16:00;9.30;99.90
7204;DHT22;3643;52.460;13.322;2024-01-25T13:18:28;9.20;99.90
7204;DHT22;3643;52.460;13.322;2024-01-25T13:20:56;9.10;99.90
7204;DHT22;3643;52.460;13.322;2024-01-25T13:23:24;9.10;99.90
7204;DHT22;3643;52.460;13.322;2024-01-25T13:25:52;9.10;99.90
7204;DHT22;3643;52.460;13.322;2024-01-25T13:28:22;9.00;99.90
7204;DHT22;3643;52.460;13.322;2024-01-25T13:30:50;9.00;99.90
7204;DHT22;3643;52.460;13.322;2024-01-25T13:33:20;9.00;99.90
7204;DHT22;3643;52.460;13.322;2024-01-25T13:35:49;7.40;99.90
7204;DHT22;3643;52.460;13.322;2024-01-25T13:38:17;8.90;99.90
7204;DHT22;3643;52.460;13.322;2024-01-25T13:40:45;8.90;99.90
7204;DHT22;3643;52.460;13.322;2024-01-25T13:43:13;8.80;99.90
7204;DHT22;3643;52.460;13.322;2024-01-25T13:45:42;8.80;99.90
7204;DHT22;3643;52.460;13.322;2024-01-25T13:48:10;8.80;99.90
7204;DHT22;3643;52.460;13.322;2024-01-25T13:50:39;8.70;99.90
7204;DHT22;3643;52.460;13.322;2024-01-25T13:53:07;8.60;99.90
7204;DHT22;3643;52.460;13.322;2024-01-25T13:55:35;8.70;99.90
7204;DHT22;3643;52.460;13.322;2024-01-25T13:58:03;8.50;99.90
7204;DHT22;3643;52.460;13.322;2024-01-25T14:00:31;8.60;99.90
7204;DHT22;3643;52.460;13.322;2024-01-25T14:03:01;8.60;99.90
7204;DHT22;3643;52.460;13.322;2024-01-25T14:05:29;8.50;99.90
7204;DHT22;3643;52.460;13.322;2024-01-25T14:07:58;8.50;99.90
7204;DHT22;3643;52.460;13.322;2024-01-25T14:10:27;8.50;99.90
7204;DHT22;3643;52.460;13.322;2024-01-25T14:12:55;8.50;99.90
7204;DHT22;3643;52.460;13.322;2024-01-25T14:15:23;8.60;99.90
7204;DHT22;3643;52.460;13.322;2024-01-25T14:17:51;8.50;99.90
7204;DHT22;3643;52.460;13.322;2024-01-25T14:20:21;8.40;99.90
7204;DHT22;3643;52.460;13.322;2024-01-25T14:22:50;8.40;99.90
7204;DHT22;3643;52.460;13.322;2024-01-25T14:25:18;8.30;99.90
7204;DHT22;3643;52.460;13.322;2024-01-25T14:27:46;8.20;99.90
7204;DHT22;3643;52.460;13.322;2024-01-25T14:30:17;8.10;99.90
7204;DHT22;3643;52.460;13.322;2024-01-25T14:32:45;8.10;99.90
7204;DHT22;3643;52.460;13.322;2024-01-25T14:35:14;8.00;99.90
7204;DHT22;3643;52.460;13.322;2024-01-25T14:37:43;8.00;99.90
7204;DHT22;3643;52.460;13.322;2024-01-25T14:40:12;8.00;99.90
7204;DHT22;3643;52.460;13.322;2024-01-25T14:43:00;7.90;99.90
7204;DHT22;3643;52.460;13.322;2024-01-25T14:45:28;7.80;99.90
7204;DHT22;3643;52.460;13.322;2024-01-25T14:47:57;7.80;99.90
7204;DHT22;3643;52.460;13.322;2024-01-25T14:50:25;7.80;99.90
7204;DHT22;3643;52.460;13.322;2024-01-25T14:52:54;7.80;99.90
7204;DHT22;3643;52.460;13.322;2024-01-25T14:55:22;7.80;99.90
7204;DHT22;3643;52.460;13.322;2024-01-25T14:57:51;7.70;99.90
7204;DHT22;3643;52.460;13.322;2024-01-25T15:00:19;7.70;99.90
7204;DHT22;3643;52.460;13.322;2024-01-25T15:02:47;7.60;99.90
7204;DHT22;3643;52.460;13.322;2024-01-25T15:05:16;7.60;99.90
7204;DHT22;3643;52.460;13.322;2024-01-25T15:07:44;7.60;99.90
7204;DHT22;3643;52.460;13.322;2024-01-25T15:10:14;7.60;99.90
7204;DHT22;3643;52.460;13.322;2024-01-25T15:12:42;7.50;99.90
7204;DHT22;3643;52.460;13.322;2024-01-25T15:15:10;7.50;99.90
7204;DHT22;3643;52.460;13.322;2024-01-25T15:17:38;7.40;99.90
7204;DHT22;3643;52.460;13.322;2024-01-25T15:20:07;7.40;99.90
7204;DHT22;3643;52.460;13.322;2024-01-25T15:22:35;7.30;99.90
7204;DHT22;3643;52.460;13.322;2024-01-25T15:25:05;7.50;99.90
7204;DHT22;3643;52.460;13.322;2024-01-25T15:27:35;7.40;99.90
7204;DHT22;3643;52.460;13.322;2024-01-25T15:30:03;7.40;99.90
7204;DHT22;3643;52.460;13.322;2024-01-25T15:32:32;7.50;99.90
7204;DHT22;3643;52.460;13.322;2024-01-25T15:35:01;7.50;99.90
7204;DHT22;3643;52.460;13.322;2024-01-25T15:37:29;7.50;99.90
7204;DHT22;3643;52.460;13.322;2024-01-25T15:39:57;7.50;99.90
7204;DHT22;3643;52.460;13.322;2024-01-25T15:42:26;7.40;99.90
7204;DHT22;3643;52.460;13.322;2024-01-25T15:44:59;7.40;99.90
7204;DHT22;3643;52.460;13.322;2024-01-25T15:47:27;7.50;99.90
7204;DHT22;3643;52.460;13.322;2024-01-25T15:49:55;7.50;99.90
7204;DHT22;3643;52.460;13.322;2024-01-25T15:52:23;7.50;99.90
7204;DHT22;3643;52.460;13.322;2024-01-25T15:54:51;7.40;99.90
7204;DHT22;3643;52.460;13.322;2024-01-25T15:57:19;7.40;99.90
7204;DHT22;3643;52.460;13.322;2024-01-25T15:59:47;7.50;99.90
7204;DHT22;3643;52.460;13.322;2024-01-25T16:02:17;7.40;99.90
7204;DHT22;3643;52.460;13.322;2024-01-25T16:04:45;7.40;99.90
7204;DHT22;3643;52.460;13.322;2024-01-25T16:07:13;7.40;99.90
7204;DHT22;3643;52.460;13.322;2024-01-25T16:09:41;7.40;99.90
7204;DHT22;3643;52.460;13.322;2024-01-25T16:12:09;7.40;99.90